Terminal Aerodrome Forecast
Issued by NWS

Current Version | Previous Version | Graphics & Text | Print | Product List | Glossary On
Versions: 1 2 3 4 5 6 7 8 9 10 11 12 13 14 15 16 17 18 19 20 21 22 23 24 25
000
FTUS41 KPBZ 301726
TAFHLG
TAF
KHLG 301726Z 3018/3118 22010KT P6SM VCTS BKN040CB
      TEMPO 3018/3021 3SM -TSRA BKN025CB
     FM302300 23005KT P6SM BKN080
     FM310800 VRB04KT P6SM -SHRA BKN035
     FM311400 22008KT P6SM -SHRA BKN025=

USA.gov is the U.S. government's official web portal to all federal, state and local government web resources and services.